sensor_id;sensor_type;location;lat;lon;timestamp;pressure;altitude;pressure_sealevel;temperature
37452;BMP280;23314;51.114;6.900;2023-04-24T00:00:32;99878.97;;;12.31
37452;BMP280;23314;51.114;6.900;2023-04-24T00:02:57;99877.03;;;12.31
37452;BMP280;23314;51.114;6.900;2023-04-24T00:05:24;99873.19;;;12.32
37452;BMP280;23314;51.114;6.900;2023-04-24T00:07:50;99870.19;;;12.30
37452;BMP280;23314;51.114;6.900;2023-04-24T00:10:18;99864.09;;;12.30
37452;BMP280;23314;51.114;6.900;2023-04-24T00:12:44;99874.56;;;12.37
37452;BMP280;23314;51.114;6.900;2023-04-24T00:15:09;99873.72;;;12.49
37452;BMP280;23314;51.114;6.900;2023-04-24T00:17:35;99860.75;;;12.61
37452;BMP280;23314;51.114;6.900;2023-04-24T00:20:00;99866.59;;;12.68
37452;BMP280;23314;51.114;6.900;2023-04-24T00:22:29;99867.34;;;12.78
37452;BMP280;23314;51.114;6.900;2023-04-24T00:24:55;99875.88;;;12.86
37452;BMP280;23314;51.114;6.900;2023-04-24T00:27:20;99857.28;;;12.92
37452;BMP280;23314;51.114;6.900;2023-04-24T00:29:46;99856.28;;;12.98
37452;BMP280;23314;51.114;6.900;2023-04-24T00:32:11;99861.38;;;13.05
37452;BMP280;23314;51.114;6.900;2023-04-24T00:34:37;99859.31;;;13.10
37452;BMP280;23314;51.114;6.900;2023-04-24T00:37:02;99863.34;;;13.14
37452;BMP280;23314;51.114;6.900;2023-04-24T00:39:27;99857.84;;;13.18
37452;BMP280;23314;51.114;6.900;2023-04-24T00:41:53;99859.22;;;13.23
37452;BMP280;23314;51.114;6.900;2023-04-24T00:44:18;99867.53;;;13.25
37452;BMP280;23314;51.114;6.900;2023-04-24T00:46:44;99857.13;;;13.27
37452;BMP280;23314;51.114;6.900;2023-04-24T00:49:09;99855.19;;;13.27
37452;BMP280;23314;51.114;6.900;2023-04-24T00:51:34;99856.25;;;13.30
37452;BMP280;23314;51.114;6.900;2023-04-24T00:54:01;99863.13;;;13.31
37452;BMP280;23314;51.114;6.900;2023-04-24T00:56:27;99848.97;;;13.30
37452;BMP280;23314;51.114;6.900;2023-04-24T00:58:53;99856.25;;;13.30
37452;BMP280;23314;51.114;6.900;2023-04-24T01:01:20;99837.94;;;13.28
37452;BMP280;23314;51.114;6.900;2023-04-24T01:03:51;99847.47;;;13.29
37452;BMP280;23314;51.114;6.900;2023-04-24T01:06:18;99849.09;;;13.27
37452;BMP280;23314;51.114;6.900;2023-04-24T01:08:45;99849.09;;;13.27
37452;BMP280;23314;51.114;6.900;2023-04-24T01:11:11;99852.66;;;13.24
37452;BMP280;23314;51.114;6.900;2023-04-24T01:13:36;99848.19;;;13.20
37452;BMP280;23314;51.114;6.900;2023-04-24T01:16:02;99854.13;;;13.15
37452;BMP280;23314;51.114;6.900;2023-04-24T01:18:27;99857.66;;;13.12
37452;BMP280;23314;51.114;6.900;2023-04-24T01:20:57;99859.31;;;13.10
37452;BMP280;23314;51.114;6.900;2023-04-24T01:23:23;99861.38;;;13.05
37452;BMP280;23314;51.114;6.900;2023-04-24T01:25:49;99861.63;;;12.98
37452;BMP280;23314;51.114;6.900;2023-04-24T01:28:15;99864.31;;;12.89
37452;BMP280;23314;51.114;6.900;2023-04-24T01:30:41;99859.66;;;12.80
37452;BMP280;23314;51.114;6.900;2023-04-24T01:33:06;99866.59;;;12.68
37452;BMP280;23314;51.114;6.900;2023-04-24T01:35:32;99862.34;;;12.58
37452;BMP280;23314;51.114;6.900;2023-04-24T01:37:57;99863.19;;;12.46
37452;BMP280;23314;51.114;6.900;2023-04-24T01:40:23;99875.84;;;12.32
37452;BMP280;23314;51.114;6.900;2023-04-24T01:42:48;99876.03;;;12.16
37452;BMP280;23314;51.114;6.900;2023-04-24T01:45:13;99878.88;;;11.99
37452;BMP280;23314;51.114;6.900;2023-04-24T01:47:39;99878.59;;;11.84
37452;BMP280;23314;51.114;6.900;2023-04-24T01:50:05;99882.47;;;11.70
37452;BMP280;23314;51.114;6.900;2023-04-24T01:52:31;99877.16;;;11.57
37452;BMP280;23314;51.114;6.900;2023-04-24T01:55:05;99874.16;;;11.43
37452;BMP280;23314;51.114;6.900;2023-04-24T01:57:31;99877.16;;;11.32
37452;BMP280;23314;51.114;6.900;2023-04-24T01:59:57;99880.13;;;11.21
37452;BMP280;23314;51.114;6.900;2023-04-24T02:02:23;99890.28;;;11.13
37452;BMP280;23314;51.114;6.900;2023-04-24T02:04:56;99873.41;;;11.03
37452;BMP280;23314;51.114;6.900;2023-04-24T02:07:21;99872.41;;;10.97
37452;BMP280;23314;51.114;6.900;2023-04-24T02:09:47;99889.38;;;10.90
37452;BMP280;23314;51.114;6.900;2023-04-24T02:12:12;99875.72;;;10.88
37452;BMP280;23314;51.114;6.900;2023-04-24T02:14:38;99886.09;;;10.86
37452;BMP280;23314;51.114;6.900;2023-04-24T02:17:03;99882.75;;;10.82
37452;BMP280;23314;51.114;6.900;2023-04-24T02:19:30;99881.38;;;10.78
37452;BMP280;23314;51.114;6.900;2023-04-24T02:21:55;99885.19;;;10.76
37452;BMP280;23314;51.114;6.900;2023-04-24T02:24:20;99878.25;;;10.79
37452;BMP280;23314;51.114;6.900;2023-04-24T02:26:46;99875.16;;;10.81
37452;BMP280;23314;51.114;6.900;2023-04-24T02:29:11;99871.09;;;10.76
37452;BMP280;23314;51.114;6.900;2023-04-24T02:31:36;99884.22;;;10.70
37452;BMP280;23314;51.114;6.900;2023-04-24T02:34:01;99888.69;;;10.73
37452;BMP280;23314;51.114;6.900;2023-04-24T02:36:27;99886.16;;;10.83
37452;BMP280;23314;51.114;6.900;2023-04-24T02:38:52;99888.56;;;10.94
37452;BMP280;23314;51.114;6.900;2023-04-24T02:41:18;99882.59;;;11.02
37452;BMP280;23314;51.114;6.900;2023-04-24T02:43:43;99885.66;;;11.14
37452;BMP280;23314;51.114;6.900;2023-04-24T02:46:08;99889.19;;;11.23
37452;BMP280;23314;51.114;6.900;2023-04-24T02:48:34;99890.06;;;11.33
37452;BMP280;23314;51.114;6.900;2023-04-24T02:50:59;99886.75;;;11.42
37452;BMP280;23314;51.114;6.900;2023-04-24T02:53:24;99905.56;;;11.51
37452;BMP280;23314;51.114;6.900;2023-04-24T02:55:50;99903.84;;;11.57
37452;BMP280;23314;51.114;6.900;2023-04-24T02:58:15;99902.47;;;11.66
37452;BMP280;23314;51.114;6.900;2023-04-24T03:00:41;99907.66;;;11.69
37452;BMP280;23314;51.114;6.900;2023-04-24T03:03:06;99901.78;;;11.74
37452;BMP280;23314;51.114;6.900;2023-04-24T03:05:32;99913.09;;;11.79
37452;BMP280;23314;51.114;6.900;2023-04-24T03:07:57;99910.75;;;11.81
37452;BMP280;23314;51.114;6.900;2023-04-24T03:10:22;99901.13;;;11.83
37452;BMP280;23314;51.114;6.900;2023-04-24T03:12:48;99907.53;;;11.86
37452;BMP280;23314;51.114;6.900;2023-04-24T03:15:14;99904.47;;;11.87
37452;BMP280;23314;51.114;6.900;2023-04-24T03:17:39;99905.19;;;11.88
37452;BMP280;23314;51.114;6.900;2023-04-24T03:20:05;99910.41;;;11.92
37452;BMP280;23314;51.114;6.900;2023-04-24T03:22:30;99911.16;;;11.92
37452;BMP280;23314;51.114;6.900;2023-04-24T03:24:57;99905.50;;;11.90
37452;BMP280;23314;51.114;6.900;2023-04-24T03:27:23;99915.75;;;11.92
37452;BMP280;23314;51.114;6.900;2023-04-24T03:29:48;99907.72;;;11.92
37452;BMP280;23314;51.114;6.900;2023-04-24T03:32:16;99915.34;;;11.93
37452;BMP280;23314;51.114;6.900;2023-04-24T03:34:42;99910.41;;;11.92
37452;BMP280;23314;51.114;6.900;2023-04-24T03:37:07;99918.00;;;11.93
37452;BMP280;23314;51.114;6.900;2023-04-24T03:39:32;99911.16;;;11.92
37452;BMP280;23314;51.114;6.900;2023-04-24T03:41:57;99910.84;;;11.90
37452;BMP280;23314;51.114;6.900;2023-04-24T03:44:23;99905.97;;;11.88
37452;BMP280;23314;51.114;6.900;2023-04-24T03:46:48;99918.22;;;11.86
37452;BMP280;23314;51.114;6.900;2023-04-24T03:49:13;99904.53;;;11.84
37452;BMP280;23314;51.114;6.900;2023-04-24T03:51:39;99901.78;;;11.87
37452;BMP280;23314;51.114;6.900;2023-04-24T03:54:04;99907.13;;;11.87
37452;BMP280;23314;51.114;6.900;2023-04-24T03:56:29;99912.03;;;11.89
37452;BMP280;23314;51.114;6.900;2023-04-24T03:58:55;99917.69;;;11.91
37452;BMP280;23314;51.114;6.900;2023-04-24T04:01:20;99913.84;;;11.92
37452;BMP280;23314;51.114;6.900;2023-04-24T04:03:46;99918.75;;;11.94
37452;BMP280;23314;51.114;6.900;2023-04-24T04:06:11;99919.59;;;11.90
37452;BMP280;23314;51.114;6.900;2023-04-24T04:08:38;99910.13;;;11.89
37452;BMP280;23314;51.114;6.900;2023-04-24T04:11:03;99925.59;;;11.95
37452;BMP280;23314;51.114;6.900;2023-04-24T04:13:28;99929.75;;;11.96
37452;BMP280;23314;51.114;6.900;2023-04-24T04:15:54;99919.38;;;11.98
37452;BMP280;23314;51.114;6.900;2023-04-24T04:18:20;99928.25;;;11.95
37452;BMP280;23314;51.114;6.900;2023-04-24T04:20:45;99921.84;;;11.92
37452;BMP280;23314;51.114;6.900;2023-04-24T04:23:10;99928.91;;;11.86
37452;BMP280;23314;51.114;6.900;2023-04-24T04:25:35;99928.19;;;11.85
37452;BMP280;23314;51.114;6.900;2023-04-24T04:28:01;99936.19;;;11.85
37452;BMP280;23314;51.114;6.900;2023-04-24T04:30:27;99926.69;;;11.84
37452;BMP280;23314;51.114;6.900;2023-04-24T04:32:54;99935.56;;;11.81
37452;BMP280;23314;51.114;6.900;2023-04-24T04:35:20;99941.31;;;11.80
37452;BMP280;23314;51.114;6.900;2023-04-24T04:37:45;99934.38;;;11.82
37452;BMP280;23314;51.114;6.900;2023-04-24T04:40:11;99937.38;;;11.84
37452;BMP280;23314;51.114;6.900;2023-04-24T04:42:36;99947.28;;;11.84
37452;BMP280;23314;51.114;6.900;2023-04-24T04:45:06;99943.13;;;11.83
37452;BMP280;23314;51.114;6.900;2023-04-24T04:47:34;99942.72;;;11.84
37452;BMP280;23314;51.114;6.900;2023-04-24T04:49:59;99941.22;;;11.83
37452;BMP280;23314;51.114;6.900;2023-04-24T04:52:25;99945.38;;;11.84
37452;BMP280;23314;51.114;6.900;2023-04-24T04:54:51;99947.28;;;11.84
37452;BMP280;23314;51.114;6.900;2023-04-24T04:57:17;99947.72;;;11.82
37452;BMP280;23314;51.114;6.900;2023-04-24T04:59:42;99943.88;;;11.83
37452;BMP280;23314;51.114;6.900;2023-04-24T05:02:07;99945.06;;;11.82
37452;BMP280;23314;51.114;6.900;2023-04-24T05:04:33;99943.88;;;11.83
37452;BMP280;23314;51.114;6.900;2023-04-24T05:06:58;99942.72;;;11.84
37452;BMP280;23314;51.114;6.900;2023-04-24T05:09:24;99956.06;;;11.84
37452;BMP280;23314;51.114;6.900;2023-04-24T05:11:52;99953.72;;;11.86
37452;BMP280;23314;51.114;6.900;2023-04-24T05:14:17;99946.44;;;11.87
37452;BMP280;23314;51.114;6.900;2023-04-24T05:16:44;99968.16;;;11.89
37452;BMP280;23314;51.114;6.900;2023-04-24T05:19:09;99964.75;;;11.88
37452;BMP280;23314;51.114;6.900;2023-04-24T05:21:36;99956.25;;;11.90
37452;BMP280;23314;51.114;6.900;2023-04-24T05:24:02;99960.75;;;11.93
37452;BMP280;23314;51.114;6.900;2023-04-24T05:26:46;99969.53;;;11.94
37452;BMP280;23314;51.114;6.900;2023-04-24T05:29:12;99970.09;;;11.88
37452;BMP280;23314;51.114;6.900;2023-04-24T05:31:37;99966.66;;;11.88
37452;BMP280;23314;51.114;6.900;2023-04-24T05:34:02;99973.50;;;11.89
37452;BMP280;23314;51.114;6.900;2023-04-24T05:36:28;99971.13;;;11.91
37452;BMP280;23314;51.114;6.900;2023-04-24T05:38:53;99973.50;;;11.89
37452;BMP280;23314;51.114;6.900;2023-04-24T05:41:18;99976.47;;;11.91
37452;BMP280;23314;51.114;6.900;2023-04-24T05:43:43;99963.09;;;11.91
37452;BMP280;23314;51.114;6.900;2023-04-24T05:46:09;99975.19;;;11.96
37452;BMP280;23314;51.114;6.900;2023-04-24T05:48:34;99979.81;;;11.95
37452;BMP280;23314;51.114;6.900;2023-04-24T05:51:00;99983.09;;;11.99
37452;BMP280;23314;51.114;6.900;2023-04-24T05:53:25;99978.59;;;12.09
37452;BMP280;23314;51.114;6.900;2023-04-24T05:55:50;99979.53;;;12.15
37452;BMP280;23314;51.114;6.900;2023-04-24T05:58:16;99967.88;;;12.22
37452;BMP280;23314;51.114;6.900;2023-04-24T06:00:41;99967.94;;;12.31
37452;BMP280;23314;51.114;6.900;2023-04-24T06:03:08;99973.81;;;12.39
37452;BMP280;23314;51.114;6.900;2023-04-24T06:05:33;99982.44;;;12.43
37452;BMP280;23314;51.114;6.900;2023-04-24T06:07:59;99979.03;;;12.43
37452;BMP280;23314;51.114;6.900;2023-04-24T06:10:25;99984.44;;;12.52
37452;BMP280;23314;51.114;6.900;2023-04-24T06:12:50;99977.28;;;12.62
37452;BMP280;23314;51.114;6.900;2023-04-24T06:15:16;99980.53;;;12.66
37452;BMP280;23314;51.114;6.900;2023-04-24T06:17:41;99976.13;;;12.72
37452;BMP280;23314;51.114;6.900;2023-04-24T06:20:06;99976.19;;;12.59
37452;BMP280;23314;51.114;6.900;2023-04-24T06:22:33;99973.81;;;12.39
37452;BMP280;23314;51.114;6.900;2023-04-24T06:24:59;99973.09;;;12.26
37452;BMP280;23314;51.114;6.900;2023-04-24T06:27:24;99984.78;;;12.19
37452;BMP280;23314;51.114;6.900;2023-04-24T06:29:50;99982.78;;;12.10
37452;BMP280;23314;51.114;6.900;2023-04-24T06:32:23;99991.13;;;11.99
37452;BMP280;23314;51.114;6.900;2023-04-24T06:34:49;99989.19;;;11.87
37452;BMP280;23314;51.114;6.900;2023-04-24T06:37:14;99991.00;;;11.77
37452;BMP280;23314;51.114;6.900;2023-04-24T06:39:41;99988.97;;;11.68
37452;BMP280;23314;51.114;6.900;2023-04-24T06:42:06;99991.22;;;11.57
37452;BMP280;23314;51.114;6.900;2023-04-24T06:44:33;99992.09;;;11.54
37452;BMP280;23314;51.114;6.900;2023-04-24T06:47:02;100000.09;;;11.54
37452;BMP280;23314;51.114;6.900;2023-04-24T06:49:28;99988.34;;;11.51
37452;BMP280;23314;51.114;6.900;2023-04-24T06:51:53;99994.88;;;11.50
37452;BMP280;23314;51.114;6.900;2023-04-24T06:54:18;99991.31;;;11.53
37452;BMP280;23314;51.114;6.900;2023-04-24T06:56:44;99998.59;;;11.53
37452;BMP280;23314;51.114;6.900;2023-04-24T06:59:11;99991.84;;;11.48
37452;BMP280;23314;51.114;6.900;2023-04-24T07:01:36;99996.88;;;11.46
37452;BMP280;23314;51.114;6.900;2023-04-24T07:04:01;99999.53;;;11.46
37452;BMP280;23314;51.114;6.900;2023-04-24T07:06:27;100003.84;;;11.44
37452;BMP280;23314;51.114;6.900;2023-04-24T07:08:52;100010.00;;;11.40
37452;BMP280;23314;51.114;6.900;2023-04-24T07:11:18;100012.00;;;11.36
37452;BMP280;23314;51.114;6.900;2023-04-24T07:13:44;100015.22;;;11.31
37452;BMP280;23314;51.114;6.900;2023-04-24T07:16:09;100015.34;;;11.28
37452;BMP280;23314;51.114;6.900;2023-04-24T07:18:34;100017.66;;;11.25
37452;BMP280;23314;51.114;6.900;2023-04-24T07:21:01;100013.72;;;11.17
37452;BMP280;23314;51.114;6.900;2023-04-24T07:23:26;100017.94;;;11.15
37452;BMP280;23314;51.114;6.900;2023-04-24T07:25:52;100024.47;;;11.14
37452;BMP280;23314;51.114;6.900;2023-04-24T07:28:17;100016.03;;;11.15
37452;BMP280;23314;51.114;6.900;2023-04-24T07:30:43;100028.28;;;11.13
37452;BMP280;23314;51.114;6.900;2023-04-24T07:33:08;100023.72;;;11.13
37452;BMP280;23314;51.114;6.900;2023-04-24T07:35:36;100014.22;;;11.12
37452;BMP280;23314;51.114;6.900;2023-04-24T07:38:01;100025.31;;;11.11
37452;BMP280;23314;51.114;6.900;2023-04-24T07:40:27;100027.47;;;11.16
37452;BMP280;23314;51.114;6.900;2023-04-24T07:42:52;100034.72;;;11.15
37452;BMP280;23314;51.114;6.900;2023-04-24T07:45:17;100034.31;;;11.17
37452;BMP280;23314;51.114;6.900;2023-04-24T07:47:43;100039.09;;;11.09
37452;BMP280;23314;51.114;6.900;2023-04-24T07:50:11;100046.94;;;11.00
37452;BMP280;23314;51.114;6.900;2023-04-24T07:52:36;100064.72;;;10.90
37452;BMP280;23314;51.114;6.900;2023-04-24T07:55:02;100078.25;;;10.66
37452;BMP280;23314;51.114;6.900;2023-04-24T07:57:28;100092.09;;;10.44
37452;BMP280;23314;51.114;6.900;2023-04-24T07:59:53;100082.22;;;10.08
37452;BMP280;23314;51.114;6.900;2023-04-24T08:02:18;100073.91;;;9.86
37452;BMP280;23314;51.114;6.900;2023-04-24T08:04:44;100083.00;;;9.69
37452;BMP280;23314;51.114;6.900;2023-04-24T08:07:09;100079.09;;;9.53
37452;BMP280;23314;51.114;6.900;2023-04-24T08:09:34;100064.75;;;9.47
37452;BMP280;23314;51.114;6.900;2023-04-24T08:12:00;100073.94;;;9.46
37452;BMP280;23314;51.114;6.900;2023-04-24T08:14:26;100068.66;;;9.42
37452;BMP280;23314;51.114;6.900;2023-04-24T08:16:54;100083.06;;;9.45
37452;BMP280;23314;51.114;6.900;2023-04-24T08:19:20;100077.66;;;9.48
37452;BMP280;23314;51.114;6.900;2023-04-24T08:21:45;100077.19;;;9.54
37452;BMP280;23314;51.114;6.900;2023-04-24T08:24:11;100073.44;;;9.51
37452;BMP280;23314;51.114;6.900;2023-04-24T08:26:36;100085.19;;;9.54
37452;BMP280;23314;51.114;6.900;2023-04-24T08:29:01;100082.13;;;9.55
37452;BMP280;23314;51.114;6.900;2023-04-24T08:31:27;100073.28;;;9.58
37452;BMP280;23314;51.114;6.900;2023-04-24T08:33:52;100088.47;;;9.61
37452;BMP280;23314;51.114;6.900;2023-04-24T08:36:18;100085.72;;;9.65
37452;BMP280;23314;51.114;6.900;2023-04-24T08:38:44;100104.25;;;9.72
37452;BMP280;23314;51.114;6.900;2023-04-24T08:41:11;100112.13;;;9.76
37452;BMP280;23314;51.114;6.900;2023-04-24T08:43:36;100107.16;;;9.78
37452;BMP280;23314;51.114;6.900;2023-04-24T08:46:03;100077.81;;;9.82
37452;BMP280;23314;51.114;6.900;2023-04-24T08:48:29;100118.94;;;9.81
37452;BMP280;23314;51.114;6.900;2023-04-24T08:50:56;100115.44;;;9.84
37452;BMP280;23314;51.114;6.900;2023-04-24T08:53:22;100159.13;;;9.86
37452;BMP280;23314;51.114;6.900;2023-04-24T08:55:49;100140.84;;;9.88
37452;BMP280;23314;51.114;6.900;2023-04-24T08:58:16;100157.53;;;9.92
37452;BMP280;23314;51.114;6.900;2023-04-24T09:00:41;100170.06;;;9.92
37452;BMP280;23314;51.114;6.900;2023-04-24T09:05:46;100190.97;;;9.93
37452;BMP280;23314;51.114;6.900;2023-04-24T09:08:12;100185.31;;;9.91
37452;BMP280;23314;51.114;6.900;2023-04-24T09:10:39;100192.06;;;9.96
37452;BMP280;23314;51.114;6.900;2023-04-24T09:13:04;100182.44;;;10.02
37452;BMP280;23314;51.114;6.900;2023-04-24T09:15:31;100212.16;;;10.01
37452;BMP280;23314;51.114;6.900;2023-04-24T09:17:57;100205.31;;;10.00
37452;BMP280;23314;51.114;6.900;2023-04-24T09:20:22;100219.47;;;9.97
37452;BMP280;23314;51.114;6.900;2023-04-24T09:22:47;100215.00;;;9.90
37452;BMP280;23314;51.114;6.900;2023-04-24T09:25:13;100226.56;;;9.83
37452;BMP280;23314;51.114;6.900;2023-04-24T09:27:42;100236.47;;;9.83
37452;BMP280;23314;51.114;6.900;2023-04-24T09:30:09;100234.19;;;9.81
37452;BMP280;23314;51.114;6.900;2023-04-24T09:32:34;100243.34;;;9.80
37452;BMP280;23314;51.114;6.900;2023-04-24T09:37:37;100270.97;;;9.90
37452;BMP280;23314;51.114;6.900;2023-04-24T09:40:16;100256.47;;;9.91
37452;BMP280;23314;51.114;6.900;2023-04-24T09:42:50;100270.97;;;9.90
37452;BMP280;23314;51.114;6.900;2023-04-24T09:45:16;100276.63;;;9.92
37452;BMP280;23314;51.114;6.900;2023-04-24T09:47:42;100280.69;;;10.00
37452;BMP280;23314;51.114;6.900;2023-04-24T09:50:15;100291.13;;;10.11
37452;BMP280;23314;51.114;6.900;2023-04-24T09:52:45;100289.22;;;10.11
37452;BMP280;23314;51.114;6.900;2023-04-24T09:55:17;100295.31;;;10.12
37452;BMP280;23314;51.114;6.900;2023-04-24T09:57:53;100301.25;;;10.20
37452;BMP280;23314;51.114;6.900;2023-04-24T10:00:26;100306.81;;;10.29
37452;BMP280;23314;51.114;6.900;2023-04-24T10:03:05;100305.59;;;10.34
37452;BMP280;23314;51.114;6.900;2023-04-24T10:05:34;100310.78;;;10.41
37452;BMP280;23314;51.114;6.900;2023-04-24T10:08:06;100325.00;;;10.54
37452;BMP280;23314;51.114;6.900;2023-04-24T10:10:33;100321.53;;;10.78
37452;BMP280;23314;51.114;6.900;2023-04-24T10:12:59;100321.13;;;10.96
37452;BMP280;23314;51.114;6.900;2023-04-24T10:15:26;100328.50;;;11.08
37452;BMP280;23314;51.114;6.900;2023-04-24T10:17:52;100333.50;;;11.22
37452;BMP280;23314;51.114;6.900;2023-04-24T10:20:22;100335.81;;;11.40
37452;BMP280;23314;51.114;6.900;2023-04-24T10:22:50;100331.22;;;11.57
37452;BMP280;23314;51.114;6.900;2023-04-24T10:25:23;100340.56;;;11.66
37452;BMP280;23314;51.114;6.900;2023-04-24T10:27:49;100351.22;;;11.82
37452;BMP280;23314;51.114;6.900;2023-04-24T10:30:16;100341.19;;;12.03
37452;BMP280;23314;51.114;6.900;2023-04-24T10:32:41;100351.31;;;12.25
37452;BMP280;23314;51.114;6.900;2023-04-24T10:35:08;100345.38;;;12.46
37452;BMP280;23314;51.114;6.900;2023-04-24T10:37:39;100352.88;;;12.51
37452;BMP280;23314;51.114;6.900;2023-04-24T10:40:07;100359.56;;;12.60
37452;BMP280;23314;51.114;6.900;2023-04-24T10:42:33;100359.88;;;12.62
37452;BMP280;23314;51.114;6.900;2023-04-24T10:44:58;100361.75;;;12.48
37452;BMP280;23314;51.114;6.900;2023-04-24T10:47:24;100369.34;;;12.37
37452;BMP280;23314;51.114;6.900;2023-04-24T10:49:51;100379.09;;;12.27
37452;BMP280;23314;51.114;6.900;2023-04-24T10:52:16;100380.50;;;12.19
37452;BMP280;23314;51.114;6.900;2023-04-24T10:54:46;100379.00;;;12.18
37452;BMP280;23314;51.114;6.900;2023-04-24T10:59:44;100384.03;;;12.58
37452;BMP280;23314;51.114;6.900;2023-04-24T11:02:09;100393.31;;;12.83
37452;BMP280;23314;51.114;6.900;2023-04-24T11:04:35;100402.41;;;12.98
37452;BMP280;23314;51.114;6.900;2023-04-24T11:07:01;100399.22;;;13.03
37452;BMP280;23314;51.114;6.900;2023-04-24T11:09:28;100412.81;;;12.83
37452;BMP280;23314;51.114;6.900;2023-04-24T11:12:09;100419.50;;;12.62
37452;BMP280;23314;51.114;6.900;2023-04-24T11:22:33;100409.31;;;12.70
37452;BMP280;23314;51.114;6.900;2023-04-24T11:24:59;100415.69;;;12.89
37452;BMP280;23314;51.114;6.900;2023-04-24T11:27:32;100425.81;;;13.24
37452;BMP280;23314;51.114;6.900;2023-04-24T11:30:03;100435.22;;;13.54
37452;BMP280;23314;51.114;6.900;2023-04-24T11:35:02;100437.28;;;13.98
37452;BMP280;23314;51.114;6.900;2023-04-24T11:37:36;100444.22;;;14.08
37452;BMP280;23314;51.114;6.900;2023-04-24T11:40:03;100455.31;;;14.32
37452;BMP280;23314;51.114;6.900;2023-04-24T11:43:06;100439.94;;;14.55
37452;BMP280;23314;51.114;6.900;2023-04-24T11:45:27;100445.66;;;14.66
37452;BMP280;23314;51.114;6.900;2023-04-24T11:47:53;100447.56;;;14.57
37452;BMP280;23314;51.114;6.900;2023-04-24T11:50:21;100447.03;;;14.40
37452;BMP280;23314;51.114;6.900;2023-04-24T11:52:48;100451.34;;;14.24
37452;BMP280;23314;51.114;6.900;2023-04-24T11:57:41;100447.88;;;14.36
37452;BMP280;23314;51.114;6.900;2023-04-24T12:00:16;100452.41;;;14.49
37452;BMP280;23314;51.114;6.900;2023-04-24T12:02:42;100446.56;;;14.41
37452;BMP280;23314;51.114;6.900;2023-04-24T12:05:07;100459.16;;;14.31
37452;BMP280;23314;51.114;6.900;2023-04-24T12:07:41;100470.06;;;14.15
37452;BMP280;23314;51.114;6.900;2023-04-24T12:10:10;100460.09;;;14.15
37452;BMP280;23314;51.114;6.900;2023-04-24T12:12:35;100470.09;;;14.37
37452;BMP280;23314;51.114;6.900;2023-04-24T12:15:05;100463.81;;;14.53
37452;BMP280;23314;51.114;6.900;2023-04-24T12:17:33;100468.78;;;14.64
37452;BMP280;23314;51.114;6.900;2023-04-24T12:20:04;100465.69;;;14.65
37452;BMP280;23314;51.114;6.900;2023-04-24T12:23:02;100476.97;;;14.60
37452;BMP280;23314;51.114;6.900;2023-04-24T12:25:30;100460.38;;;14.52
37452;BMP280;23314;51.114;6.900;2023-04-24T12:30:32;100479.44;;;14.32
37452;BMP280;23314;51.114;6.900;2023-04-24T12:32:58;100485.28;;;14.53
37452;BMP280;23314;51.114;6.900;2023-04-24T12:35:25;100488.75;;;14.63
37452;BMP280;23314;51.114;6.900;2023-04-24T12:37:52;100491.88;;;14.83
37452;BMP280;23314;51.114;6.900;2023-04-24T12:40:20;100484.94;;;14.95
37452;BMP280;23314;51.114;6.900;2023-04-24T12:42:50;100492.72;;;14.71
37452;BMP280;23314;51.114;6.900;2023-04-24T12:45:17;100502.78;;;14.45
37452;BMP280;23314;51.114;6.900;2023-04-24T12:47:43;100494.47;;;14.30
37452;BMP280;23314;51.114;6.900;2023-04-24T12:50:10;100498.16;;;14.10
37452;BMP280;23314;51.114;6.900;2023-04-24T12:52:36;100504.41;;;14.07
37452;BMP280;23314;51.114;6.900;2023-04-24T12:55:02;100500.00;;;14.13
37452;BMP280;23314;51.114;6.900;2023-04-24T12:57:29;100505.59;;;14.41
37452;BMP280;23314;51.114;6.900;2023-04-24T12:59:56;100507.94;;;14.74
37452;BMP280;23314;51.114;6.900;2023-04-24T13:02:23;100515.41;;;14.79
37452;BMP280;23314;51.114;6.900;2023-04-24T13:04:49;100515.66;;;14.72
37452;BMP280;23314;51.114;6.900;2023-04-24T13:07:15;100518.28;;;14.63
37452;BMP280;23314;51.114;6.900;2023-04-24T13:09:41;100521.78;;;14.50
37452;BMP280;23314;51.114;6.900;2023-04-24T13:12:08;100516.88;;;14.36
37452;BMP280;23314;51.114;6.900;2023-04-24T13:14:34;100522.94;;;14.27
37452;BMP280;23314;51.114;6.900;2023-04-24T13:16:59;100522.59;;;14.25
37452;BMP280;23314;51.114;6.900;2023-04-24T13:19:25;100523.66;;;14.41
37452;BMP280;23314;51.114;6.900;2023-04-24T13:21:52;100535.16;;;14.63
37452;BMP280;23314;51.114;6.900;2023-04-24T13:24:17;100521.78;;;14.73
37452;BMP280;23314;51.114;6.900;2023-04-24T13:26:43;100531.91;;;14.91
37452;BMP280;23314;51.114;6.900;2023-04-24T13:29:08;100541.63;;;15.19
37452;BMP280;23314;51.114;6.900;2023-04-24T13:31:34;100535.59;;;15.38
37452;BMP280;23314;51.114;6.900;2023-04-24T13:33:59;100526.06;;;15.46
37452;BMP280;23314;51.114;6.900;2023-04-24T13:36:24;100521.13;;;15.44
37452;BMP280;23314;51.114;6.900;2023-04-24T13:38:50;100523.97;;;15.50
37452;BMP280;23314;51.114;6.900;2023-04-24T13:41:15;100522.34;;;15.52
37452;BMP280;23314;51.114;6.900;2023-04-24T13:43:41;100522.47;;;15.49
37452;BMP280;23314;51.114;6.900;2023-04-24T13:46:08;100524.84;;;15.38
37452;BMP280;23314;51.114;6.900;2023-04-24T13:48:33;100532.44;;;15.39
37452;BMP280;23314;51.114;6.900;2023-04-24T13:50:58;100528.91;;;15.42
37452;BMP280;23314;51.114;6.900;2023-04-24T13:53:24;100517.00;;;15.62
37452;BMP280;23314;51.114;6.900;2023-04-24T13:55:49;100531.25;;;15.81
37452;BMP280;23314;51.114;6.900;2023-04-24T13:58:14;100518.56;;;15.91
37452;BMP280;23314;51.114;6.900;2023-04-24T14:00:40;100526.78;;;15.96
37452;BMP280;23314;51.114;6.900;2023-04-24T14:03:05;100518.09;;;15.83
37452;BMP280;23314;51.114;6.900;2023-04-24T14:05:31;100517.63;;;15.84
37452;BMP280;23314;51.114;6.900;2023-04-24T14:07:56;100514.66;;;16.01
37452;BMP280;23314;51.114;6.900;2023-04-24T14:10:22;100509.72;;;15.99
37452;BMP280;23314;51.114;6.900;2023-04-24T14:12:47;100518.97;;;15.89
37452;BMP280;23314;51.114;6.900;2023-04-24T14:15:13;100527.03;;;15.70
37452;BMP280;23314;51.114;6.900;2023-04-24T14:17:39;100521.38;;;15.37
37452;BMP280;23314;51.114;6.900;2023-04-24T14:20:05;100527.31;;;15.23
37452;BMP280;23314;51.114;6.900;2023-04-24T14:22:30;100533.72;;;15.25